Strona główna
METAR-TAF:

METAR-TAF

Lotnisko :

Olney-Noble Airport

Olney-Noble, Illinois, Stany Zjednoczone

Szerokość geograficzna: 38-43-19N, Długość geograficzna: 088-10-35W, wysokość: 147 m

Aktualna obserwacja pogody

Raport powstał 10 minut temu, godzina 04:55 UTC
Wiatr 3 kt od północny zachód
Temperatura 16°C
Wilgotność 100%
Ciśnienie 1019 hPa
Widzialność: 16.1 km
bezchmurnie

METAR: KOLY 230455Z AUTO 32003KT 10SM CLR 16/16 A3009 RMK AO2 T01590159

czas: 00:05 (05:05 UTC)


TAF: brakujący

Obserwacja i prognoza pogody dla ponad 4000 lotnisk (raport METAR i TAF).

Dostępne stacje oznaczono żółtymi i czerwonymi punktami na mapie.

Najedź kursorem aby zobaczyć nazwę stacji.

Kliknij aby zobaczyć obserwacje i prognozy pogody.

Aby zmienić mapę: kliknij na zielony przycisk z czarnym krzyżykiem, aby powiększyć; na zielony przycisk z myślnikiem, aby pomniejszyć; na zielone strzałki, aby przejść do map sąsiednich.


METAR-TAF: